createdAt,value
2018-10-07T00:00:56.878Z,95453.25
2018-10-07T00:03:26.328Z,95453.84
2018-10-07T00:05:55.163Z,95446.19
2018-10-07T00:08:24.011Z,95444.82
2018-10-07T00:10:53.778Z,95443.58
2018-10-07T00:13:22.656Z,95439.33
2018-10-07T00:15:51.831Z,95435.19
2018-10-07T00:18:20.574Z,95432.91
2018-10-07T00:20:49.438Z,95427.50
2018-10-07T00:23:19.158Z,95417.59
2018-10-07T00:25:48.161Z,95415.87
2018-10-07T00:28:17.939Z,95411.92
2018-10-07T00:30:46.591Z,95415.59
2018-10-07T00:33:16.379Z,95413.42
2018-10-07T00:35:45.015Z,95404.43
2018-10-07T00:38:13.826Z,95394.33
2018-10-07T00:40:43.559Z,95393.27
2018-10-07T00:43:12.236Z,95392.80
2018-10-07T00:45:41.015Z,95387.95
2018-10-07T00:48:10.230Z,95376.20
2018-10-07T00:50:39.315Z,95369.42
2018-10-07T00:53:08.135Z,95380.39
2018-10-07T00:55:37.215Z,95382.94
2018-10-07T00:58:06.235Z,95374.61
2018-10-07T01:00:35.082Z,95379.59
2018-10-07T01:03:04.320Z,95377.75
2018-10-07T01:05:33.011Z,95385.07
2018-10-07T01:08:01.973Z,95379.82
2018-10-07T01:10:31.710Z,95378.15
2018-10-07T01:13:01.467Z,95374.34
2018-10-07T01:15:30.402Z,95379.19
2018-10-07T01:17:59.554Z,95377.30
2018-10-07T01:20:28.511Z,95369.38
2018-10-07T01:22:58.646Z,95365.11
2018-10-07T01:25:27.816Z,95365.96
2018-10-07T01:27:56.587Z,95357.83
2018-10-07T01:30:25.484Z,95357.06
2018-10-07T01:32:55.906Z,95357.79
2018-10-07T01:35:24.994Z,95355.34
2018-10-07T01:37:53.902Z,95358.61
2018-10-07T01:40:23.110Z,95353.47
2018-10-07T01:42:51.835Z,95356.47
2018-10-07T01:45:20.562Z,95353.73
2018-10-07T01:47:49.675Z,95360.74
2018-10-07T01:50:18.338Z,95351.88
2018-10-07T01:52:47.635Z,95351.84
2018-10-07T01:55:16.783Z,95346.32
2018-10-07T01:57:45.793Z,95348.11
2018-10-07T02:00:14.611Z,95346.78
2018-10-07T02:02:43.751Z,95350.16
2018-10-07T02:05:12.494Z,95352.22
2018-10-07T02:07:41.263Z,95348.48
2018-10-07T02:10:10.231Z,95344.97
2018-10-07T02:12:39.042Z,95351.58
2018-10-07T02:15:07.923Z,95353.47
2018-10-07T02:17:37.272Z,95347.30
2018-10-07T02:20:06.635Z,95348.38
2018-10-07T02:22:35.635Z,95341.83
2018-10-07T02:25:05.427Z,95336.73
2018-10-07T02:27:34.288Z,95336.20
2018-10-07T02:30:03.287Z,95334.00
2018-10-07T02:32:32.251Z,95326.51
2018-10-07T02:35:00.971Z,95336.19
2018-10-07T02:37:29.777Z,95337.39
2018-10-07T02:39:58.632Z,95334.17
2018-10-07T02:42:27.519Z,95331.86
2018-10-07T02:44:56.933Z,95339.59
2018-10-07T02:47:25.916Z,95343.47
2018-10-07T02:49:55.143Z,95338.20
2018-10-07T02:52:30.056Z,95337.60
2018-10-07T02:54:58.864Z,95340.20
2018-10-07T02:57:28.319Z,95338.00
2018-10-07T02:59:57.168Z,95336.58
2018-10-07T03:02:25.860Z,95338.77
2018-10-07T03:04:54.976Z,95339.81
2018-10-07T03:07:24.569Z,95339.87
2018-10-07T03:09:53.582Z,95335.17
2018-10-07T03:12:22.592Z,95337.39
2018-10-07T03:14:51.761Z,95340.41
2018-10-07T03:17:20.579Z,95335.16
2018-10-07T03:19:49.907Z,95333.08
2018-10-07T03:22:19.078Z,95329.37
2018-10-07T03:24:48.845Z,95332.95
2018-10-07T03:27:17.829Z,95330.08
2018-10-07T03:29:47.719Z,95325.14
2018-10-07T03:32:16.635Z,95320.28
2018-10-07T03:34:45.379Z,95320.70
2018-10-07T03:37:15.671Z,95320.59
2018-10-07T03:39:44.598Z,95326.88
2018-10-07T03:42:13.395Z,95324.91
2018-10-07T03:44:42.320Z,95323.14
2018-10-07T03:47:11.528Z,95317.61
2018-10-07T03:49:40.970Z,95326.63
2018-10-07T03:52:10.126Z,95320.05
2018-10-07T03:54:39.224Z,95317.31
2018-10-07T03:57:08.223Z,95323.75
2018-10-07T03:59:37.682Z,95324.70
2018-10-07T04:02:06.830Z,95325.12
2018-10-07T04:04:35.866Z,95324.46
2018-10-07T04:07:05.564Z,95318.89
2018-10-07T04:09:34.757Z,95323.44
2018-10-07T04:12:04.115Z,95316.37
2018-10-07T04:14:33.346Z,95318.37
2018-10-07T04:17:02.514Z,95313.46
2018-10-07T04:19:31.526Z,95312.41
2018-10-07T04:22:01.003Z,95307.66
2018-10-07T04:24:31.632Z,95315.39
2018-10-07T04:27:00.620Z,95314.06
2018-10-07T04:29:29.706Z,95314.55
2018-10-07T04:31:58.851Z,95309.02
2018-10-07T04:34:27.914Z,95321.09
2018-10-07T04:36:57.338Z,95320.50
2018-10-07T04:39:26.458Z,95319.06
2018-10-07T04:41:55.370Z,95321.49
2018-10-07T04:44:24.756Z,95322.82
2018-10-07T04:46:53.783Z,95325.41
2018-10-07T04:49:22.947Z,95318.55
2018-10-07T04:51:52.166Z,95317.43
2018-10-07T04:54:21.304Z,95324.75
2018-10-07T04:56:50.362Z,95324.47
2018-10-07T04:59:20.025Z,95325.27
2018-10-07T05:01:49.238Z,95326.59
2018-10-07T05:04:18.807Z,95329.60
2018-10-07T05:06:48.040Z,95335.48
2018-10-07T05:09:17.229Z,95334.31
2018-10-07T05:11:46.578Z,95320.25
2018-10-07T05:14:16.041Z,95325.81
2018-10-07T05:16:48.901Z,95331.48
2018-10-07T05:19:18.241Z,95330.27
2018-10-07T05:21:47.544Z,95323.89
2018-10-07T05:24:17.179Z,95318.45
2018-10-07T05:26:46.412Z,95329.41
2018-10-07T05:29:15.639Z,95328.80
2018-10-07T05:31:44.925Z,95324.73
2018-10-07T05:34:13.970Z,95324.11
2018-10-07T05:36:43.243Z,95321.61
2018-10-07T05:39:13.634Z,95323.96
2018-10-07T05:41:42.871Z,95324.53
2018-10-07T05:44:12.214Z,95319.09
2018-10-07T05:46:41.581Z,95312.02
2018-10-07T05:49:11.079Z,95322.30
2018-10-07T05:51:40.157Z,95314.54
2018-10-07T05:54:09.483Z,95318.41
2018-10-07T05:56:38.563Z,95318.69
2018-10-07T05:59:08.687Z,95309.80
2018-10-07T06:01:42.876Z,95308.75
2018-10-07T06:04:48.900Z,95317.50
2018-10-07T06:07:18.515Z,95315.22
2018-10-07T06:09:47.888Z,95316.13
2018-10-07T06:12:17.188Z,95314.60
2018-10-07T06:14:57.643Z,95318.25
2018-10-07T06:17:26.851Z,95317.36
2018-10-07T06:19:56.039Z,95319.99
2018-10-07T06:22:25.877Z,95321.34
2018-10-07T06:24:55.123Z,95312.86
2018-10-07T06:27:24.284Z,95316.20
2018-10-07T06:29:53.593Z,95314.22
2018-10-07T06:32:22.726Z,95321.33
2018-10-07T06:34:51.954Z,95312.53
2018-10-07T06:37:21.304Z,95309.59
2018-10-07T06:39:50.444Z,95316.97
2018-10-07T06:42:19.564Z,95314.75
2018-10-07T06:44:48.814Z,95312.16
2018-10-07T06:47:17.937Z,95311.07
2018-10-07T06:49:47.191Z,95306.91
2018-10-07T06:52:16.542Z,95308.86
2018-10-07T06:54:45.626Z,95307.59
2018-10-07T06:57:14.821Z,95305.23
2018-10-07T06:59:44.179Z,95308.27
2018-10-07T07:02:13.291Z,95309.15
2018-10-07T07:04:42.472Z,95284.09
2018-10-07T07:07:11.904Z,95304.98
2018-10-07T07:09:41.122Z,95308.66
2018-10-07T07:12:10.351Z,95305.09
2018-10-07T07:14:39.577Z,95305.66
2018-10-07T07:17:08.460Z,95300.64
2018-10-07T07:19:37.693Z,95306.13
2018-10-07T07:22:07.351Z,95297.52
2018-10-07T07:24:36.379Z,95304.99
2018-10-07T07:27:05.654Z,95297.16
2018-10-07T07:29:35.105Z,95297.77
2018-10-07T07:32:04.231Z,95296.40
2018-10-07T07:34:33.344Z,95300.37
2018-10-07T07:37:02.943Z,95293.13
2018-10-07T07:39:32.067Z,95297.02
2018-10-07T07:42:02.286Z,95294.77
2018-10-07T07:44:31.754Z,95286.14
2018-10-07T07:47:00.859Z,95288.34
2018-10-07T07:49:30.004Z,95282.67
2018-10-07T07:51:59.105Z,95285.75
2018-10-07T07:54:28.112Z,95285.11
2018-10-07T07:56:57.242Z,95285.00
2018-10-07T07:59:26.573Z,95277.45
2018-10-07T08:01:55.598Z,95274.98
2018-10-07T08:04:24.796Z,95275.58
2018-10-07T08:06:54.316Z,95268.33
2018-10-07T08:09:23.415Z,95265.31
2018-10-07T08:11:52.594Z,95269.89
2018-10-07T08:14:21.847Z,95266.31
2018-10-07T08:16:51.103Z,95263.41
2018-10-07T08:19:20.387Z,95266.49
2018-10-07T08:21:49.894Z,95254.09
2018-10-07T08:24:18.906Z,95254.24
2018-10-07T08:26:48.099Z,95246.52
2018-10-07T08:29:17.471Z,95245.01
2018-10-07T08:31:46.779Z,95251.57
2018-10-07T08:34:15.951Z,95249.05
2018-10-07T08:36:45.107Z,95251.49
2018-10-07T08:39:14.210Z,95246.17
2018-10-07T08:41:43.340Z,95245.84
2018-10-07T08:44:12.615Z,95243.09
2018-10-07T08:46:43.527Z,95241.62
2018-10-07T08:49:12.873Z,95238.11
2018-10-07T08:51:42.570Z,95236.02
2018-10-07T08:54:11.860Z,95234.66
2018-10-07T08:56:41.559Z,95235.70
2018-10-07T08:59:10.903Z,95225.72
2018-10-07T09:01:41.043Z,95227.59
2018-10-07T09:04:12.069Z,95226.97
2018-10-07T09:06:43.472Z,95230.44
2018-10-07T09:09:13.340Z,95223.53
2018-10-07T09:11:45.551Z,95227.31
2018-10-07T09:14:14.998Z,95217.96
2018-10-07T09:16:44.167Z,95209.77
2018-10-07T09:19:13.498Z,95204.36
2018-10-07T09:21:46.126Z,95208.67
2018-10-07T09:24:16.253Z,95200.07
2018-10-07T09:26:45.676Z,95205.52
2018-10-07T09:29:17.141Z,95200.30
2018-10-07T09:31:46.319Z,95196.53
2018-10-07T09:34:15.555Z,95204.86
2018-10-07T09:36:44.951Z,95197.53
2018-10-07T09:39:14.007Z,95191.75
2018-10-07T09:41:43.146Z,95186.97
2018-10-07T09:44:12.588Z,95180.61
2018-10-07T09:46:42.199Z,95177.30
2018-10-07T09:49:11.503Z,95164.75
2018-10-07T09:51:41.151Z,95168.61
2018-10-07T09:54:10.706Z,95165.99
2018-10-07T09:56:40.007Z,95162.52
2018-10-07T09:59:10.775Z,95159.69
2018-10-07T10:01:40.059Z,95157.95
2018-10-07T10:04:13.109Z,95150.23
2018-10-07T10:06:42.194Z,95149.13
2018-10-07T10:09:15.614Z,95143.87
2018-10-07T10:11:44.530Z,95142.41
2018-10-07T10:14:13.622Z,95146.62
2018-10-07T10:16:50.750Z,95134.11
2018-10-07T10:19:26.561Z,95131.16
2018-10-07T10:23:06.066Z,95128.19
2018-10-07T10:25:57.847Z,95125.88
2018-10-07T10:28:43.742Z,95113.45
2018-10-07T10:31:16.511Z,95111.45
2018-10-07T10:33:49.611Z,95110.31
2018-10-07T10:37:29.262Z,95112.27
2018-10-07T10:40:00.768Z,95102.66
2018-10-07T10:43:49.499Z,95096.16
2018-10-07T10:46:27.971Z,95095.04
2018-10-07T10:49:07.116Z,95078.95
2018-10-07T10:51:45.034Z,95079.64
2018-10-07T10:54:23.464Z,95079.84
2018-10-07T10:56:57.787Z,95076.66
2018-10-07T11:00:34.441Z,95076.09
2018-10-07T11:03:18.288Z,95073.11
2018-10-07T11:07:57.329Z,95065.92
2018-10-07T11:10:31.979Z,95054.70
2018-10-07T11:13:19.052Z,95052.40
2018-10-07T11:16:53.839Z,95046.04
2018-10-07T11:19:28.024Z,95033.70
2018-10-07T11:22:11.892Z,95030.38
2018-10-07T11:24:49.148Z,95033.98
2018-10-07T11:27:30.470Z,95033.90
2018-10-07T11:32:14.475Z,95033.34
2018-10-07T11:35:02.100Z,95023.34
2018-10-07T11:37:53.066Z,95019.70
2018-10-07T11:42:37.026Z,95019.62
2018-10-07T11:45:13.155Z,95023.11
2018-10-07T11:47:50.739Z,95016.59
2018-10-07T11:50:28.691Z,95013.13
2018-10-07T11:53:04.833Z,95003.17
2018-10-07T11:55:34.037Z,95006.03
2018-10-07T11:58:03.340Z,95005.95
2018-10-07T12:00:33.007Z,95000.83
2018-10-07T12:03:02.212Z,94991.80
2018-10-07T12:05:31.026Z,94995.69
2018-10-07T12:07:59.939Z,94978.66
2018-10-07T12:10:28.867Z,94986.85
2018-10-07T12:12:57.912Z,94995.57
2018-10-07T12:15:26.952Z,94985.86
2018-10-07T12:17:55.689Z,94980.41
2018-10-07T12:20:24.723Z,94982.77
2018-10-07T12:22:53.939Z,94973.16
2018-10-07T12:25:22.978Z,94966.17
2018-10-07T12:27:51.759Z,94965.11
2018-10-07T12:30:21.035Z,94964.27
2018-10-07T12:32:49.855Z,94961.76
2018-10-07T12:35:19.538Z,94955.24
2018-10-07T12:37:48.863Z,94943.75
2018-10-07T12:40:18.060Z,94950.06
2018-10-07T12:42:47.208Z,94947.27
2018-10-07T12:45:16.337Z,94944.48
2018-10-07T12:47:45.454Z,94943.31
2018-10-07T12:50:14.642Z,94930.41
2018-10-07T12:52:44.192Z,94935.34
2018-10-07T12:55:13.169Z,94938.66
2018-10-07T12:57:42.164Z,94937.11
2018-10-07T13:00:11.743Z,94937.55
2018-10-07T13:02:40.967Z,94923.91
2018-10-07T13:05:09.865Z,94919.23
2018-10-07T13:07:38.783Z,94932.14
2018-10-07T13:10:08.142Z,94923.00
2018-10-07T13:12:37.135Z,94919.91
2018-10-07T13:15:06.979Z,94918.08
2018-10-07T13:17:36.083Z,94914.41
2018-10-07T13:20:05.063Z,94914.73
2018-10-07T13:22:34.829Z,94912.48
2018-10-07T13:25:03.760Z,94906.04
2018-10-07T13:27:32.760Z,94910.34
2018-10-07T13:30:01.736Z,94904.23
2018-10-07T13:32:31.132Z,94905.91
2018-10-07T13:35:00.478Z,94904.55
2018-10-07T13:37:29.989Z,94901.30
2018-10-07T13:39:59.126Z,94896.91
2018-10-07T13:42:28.255Z,94898.64
2018-10-07T13:44:57.438Z,94896.81
2018-10-07T13:47:26.668Z,94896.80
2018-10-07T13:49:56.172Z,94891.53
2018-10-07T13:52:24.938Z,94886.93
2018-10-07T13:54:53.955Z,94894.55
2018-10-07T13:57:23.462Z,94883.70
2018-10-07T13:59:52.558Z,94880.37
2018-10-07T14:02:21.448Z,94878.52
2018-10-07T14:04:50.670Z,94879.83
2018-10-07T14:07:19.431Z,94885.64
2018-10-07T14:09:48.939Z,94878.41
2018-10-07T14:12:18.360Z,94882.19
2018-10-07T14:14:47.187Z,94880.45
2018-10-07T14:17:16.433Z,94882.39
2018-10-07T14:19:46.038Z,94877.22
2018-10-07T14:22:15.286Z,94878.09
2018-10-07T14:24:44.335Z,94883.05
2018-10-07T14:27:13.703Z,94873.92
2018-10-07T14:29:42.539Z,94873.58
2018-10-07T14:32:11.536Z,94871.64
2018-10-07T14:34:40.640Z,94878.09
2018-10-07T14:37:09.830Z,94877.23
2018-10-07T14:39:39.137Z,94870.24
2018-10-07T14:42:08.639Z,94874.01
2018-10-07T14:44:37.819Z,94873.47
2018-10-07T14:47:06.672Z,94878.53
2018-10-07T14:49:35.925Z,94873.81
2018-10-07T14:52:04.891Z,94875.52
2018-10-07T14:54:33.716Z,94881.02
2018-10-07T14:57:03.228Z,94876.19
2018-10-07T14:59:32.194Z,94870.05
2018-10-07T15:02:01.607Z,94872.00
2018-10-07T15:04:30.524Z,94874.02
2018-10-07T15:06:59.382Z,94879.50
2018-10-07T15:09:29.036Z,94872.64
2018-10-07T15:11:58.329Z,94873.16
2018-10-07T15:14:27.512Z,94868.11
2018-10-07T15:16:56.402Z,94875.53
2018-10-07T15:19:25.231Z,94870.16
2018-10-07T15:21:54.287Z,94869.69
2018-10-07T15:24:23.327Z,94870.21
2018-10-07T15:26:52.543Z,94870.73
2018-10-07T15:29:21.480Z,94872.36
2018-10-07T15:31:50.412Z,94875.19
2018-10-07T15:34:19.581Z,94880.17
2018-10-07T15:36:48.756Z,94882.48
2018-10-07T15:39:18.095Z,94884.53
2018-10-07T15:41:47.522Z,94895.02
2018-10-07T15:44:16.296Z,94889.33
2018-10-07T15:46:45.443Z,94890.30
2018-10-07T15:49:14.680Z,94897.58
2018-10-07T15:51:44.369Z,94894.92
2018-10-07T15:54:13.352Z,94902.91
2018-10-07T15:56:42.120Z,94901.55
2018-10-07T15:59:11.031Z,94900.61
2018-10-07T16:01:39.918Z,94905.84
2018-10-07T16:04:09.442Z,94904.55
2018-10-07T16:06:38.320Z,94907.03
2018-10-07T16:09:09.054Z,94906.15
2018-10-07T16:11:38.343Z,94907.45
2018-10-07T16:14:07.226Z,94913.63
2018-10-07T16:16:36.704Z,94915.60
2018-10-07T16:19:05.903Z,94914.02
2018-10-07T16:21:35.052Z,94914.19
2018-10-07T16:24:04.260Z,94922.12
2018-10-07T16:26:33.828Z,94929.38
2018-10-07T16:29:03.571Z,94925.52
2018-10-07T16:31:32.662Z,94927.85
2018-10-07T16:34:01.562Z,94928.91
2018-10-07T16:36:30.570Z,94935.51
2018-10-07T16:38:59.435Z,94934.80
2018-10-07T16:41:28.415Z,94941.49
2018-10-07T16:43:57.444Z,94941.09
2018-10-07T16:46:26.863Z,94949.07
2018-10-07T16:48:55.924Z,94955.03
2018-10-07T16:51:24.738Z,94960.02
2018-10-07T16:53:54.054Z,94962.45
2018-10-07T16:56:23.131Z,94957.94
2018-10-07T16:58:52.130Z,94963.90
2018-10-07T17:01:21.419Z,94964.67
2018-10-07T17:03:50.127Z,94966.31
2018-10-07T17:06:19.532Z,94968.97
2018-10-07T17:08:49.051Z,94974.83
2018-10-07T17:11:18.032Z,94974.30
2018-10-07T17:13:46.927Z,94976.35
2018-10-07T17:16:16.346Z,94984.19
2018-10-07T17:18:45.516Z,94986.08
2018-10-07T17:21:14.689Z,94981.58
2018-10-07T17:23:43.930Z,94989.53
2018-10-07T17:26:12.760Z,94988.42
2018-10-07T17:28:41.895Z,94994.98
2018-10-07T17:31:10.848Z,94987.80
2018-10-07T17:33:40.005Z,94988.69
2018-10-07T17:36:09.106Z,94991.72
2018-10-07T17:38:38.395Z,94992.72
2018-10-07T17:41:07.422Z,94997.66
2018-10-07T17:43:36.383Z,95003.67
2018-10-07T17:46:06.625Z,95009.22
2018-10-07T17:48:35.837Z,95010.03
2018-10-07T17:51:04.694Z,95010.91
2018-10-07T17:53:33.823Z,95006.46
2018-10-07T17:56:02.674Z,95012.11
2018-10-07T17:58:31.582Z,95017.52
2018-10-07T18:01:00.391Z,95016.91
2018-10-07T18:03:29.371Z,95022.02
2018-10-07T18:05:58.223Z,95025.41
2018-10-07T18:08:27.555Z,95030.79
2018-10-07T18:10:57.438Z,95031.73
2018-10-07T18:13:26.355Z,95034.73
2018-10-07T18:15:55.472Z,95040.09
2018-10-07T18:18:24.455Z,95034.20
2018-10-07T18:20:53.239Z,95037.06
2018-10-07T18:23:22.602Z,95040.20
2018-10-07T18:25:51.499Z,95046.27
2018-10-07T18:28:20.328Z,95042.07
2018-10-07T18:30:50.087Z,95047.83
2018-10-07T18:33:18.922Z,95043.59
2018-10-07T18:35:47.909Z,95044.72
2018-10-07T18:38:17.408Z,95051.63
2018-10-07T18:40:46.154Z,95059.47
2018-10-07T18:43:15.281Z,95056.16
2018-10-07T18:45:44.434Z,95067.30
2018-10-07T18:48:13.527Z,95057.59
2018-10-07T18:50:42.474Z,95056.75
2018-10-07T18:53:11.736Z,95061.48
2018-10-07T18:55:41.006Z,95066.86
2018-10-07T18:58:09.688Z,95063.70
2018-10-07T19:00:39.118Z,95066.39
2018-10-07T19:03:08.083Z,95068.71
2018-10-07T19:05:36.951Z,95069.11
2018-10-07T19:08:05.989Z,95075.39
2018-10-07T19:10:35.043Z,95071.32
2018-10-07T19:13:03.946Z,95069.03
2018-10-07T19:15:33.264Z,95071.39
2018-10-07T19:18:02.355Z,95069.31
2018-10-07T19:20:31.260Z,95076.91
2018-10-07T19:23:00.370Z,95076.17
2018-10-07T19:25:29.455Z,95085.13
2018-10-07T19:27:58.451Z,95082.44
2018-10-07T19:30:27.667Z,95087.91
2018-10-07T19:32:56.751Z,95086.59
2018-10-07T19:35:25.845Z,95092.31
2018-10-07T19:37:54.866Z,95093.81
2018-10-07T19:40:23.826Z,95103.88
2018-10-07T19:42:52.829Z,95104.44
2018-10-07T19:45:21.919Z,95098.09
2018-10-07T19:47:50.974Z,95101.80
2018-10-07T19:50:19.802Z,95103.38
2018-10-07T19:52:48.876Z,95101.02
2018-10-07T19:55:18.974Z,95105.78
2018-10-07T19:57:47.850Z,95111.79
2018-10-07T20:00:17.655Z,95103.98
2018-10-07T20:02:46.684Z,95102.75
2018-10-07T20:05:15.774Z,95106.47
2018-10-07T20:07:44.995Z,95101.02
2018-10-07T20:10:13.912Z,95109.75
2018-10-07T20:12:42.866Z,95118.58
2018-10-07T20:15:12.179Z,95116.13
2018-10-07T20:17:40.987Z,95111.51
2018-10-07T20:20:09.903Z,95111.41
2018-10-07T20:22:38.971Z,95117.08
2018-10-07T20:25:07.990Z,95118.80
2018-10-07T20:27:37.079Z,95118.91
2018-10-07T20:30:06.359Z,95120.27
2018-10-07T20:32:35.262Z,95122.26
2018-10-07T20:35:04.100Z,95120.41
2018-10-07T20:37:33.488Z,95118.47
2018-10-07T20:40:02.567Z,95119.09
2018-10-07T20:42:31.459Z,95123.38
2018-10-07T20:45:00.488Z,95122.20
2018-10-07T20:47:29.550Z,95117.95
2018-10-07T20:49:58.430Z,95118.38
2018-10-07T20:52:29.625Z,95125.34
2018-10-07T20:54:58.575Z,95127.38
2018-10-07T20:57:27.679Z,95128.33
2018-10-07T20:59:56.703Z,95134.48
2018-10-07T21:02:25.974Z,95133.16
2018-10-07T21:04:54.938Z,95137.58
2018-10-07T21:07:24.236Z,95131.37
2018-10-07T21:09:53.149Z,95135.75
2018-10-07T21:12:21.996Z,95133.06
2018-10-07T21:14:51.410Z,95133.39
2018-10-07T21:17:20.439Z,95140.09
2018-10-07T21:19:49.335Z,95141.90
2018-10-07T21:22:18.555Z,95135.66
2018-10-07T21:24:47.544Z,95133.00
2018-10-07T21:27:16.610Z,95126.97
2018-10-07T21:29:45.975Z,95132.98
2018-10-07T21:32:14.926Z,95130.31
2018-10-07T21:34:43.715Z,95130.69
2018-10-07T21:37:12.690Z,95135.58
2018-10-07T21:39:41.819Z,95128.14
2018-10-07T21:42:10.597Z,95133.80
2018-10-07T21:44:39.675Z,95134.45
2018-10-07T21:47:08.530Z,95137.07
2018-10-07T21:49:37.927Z,95139.22
2018-10-07T21:52:07.079Z,95143.52
2018-10-07T21:54:36.034Z,95142.73
2018-10-07T21:57:04.919Z,95136.83
2018-10-07T21:59:33.880Z,95137.33
2018-10-07T22:02:03.078Z,95135.03
2018-10-07T22:04:33.189Z,95132.91
2018-10-07T22:07:03.613Z,95130.20
2018-10-07T22:09:32.402Z,95128.84
2018-10-07T22:12:01.961Z,95127.45
2018-10-07T22:14:31.263Z,95119.20
2018-10-07T22:17:00.135Z,95124.06
2018-10-07T22:19:28.990Z,95118.13
2018-10-07T22:21:58.012Z,95125.75
2018-10-07T22:24:27.199Z,95120.25
2018-10-07T22:26:56.335Z,95116.33
2018-10-07T22:29:25.863Z,95116.31
2018-10-07T22:31:54.895Z,95120.28
2018-10-07T22:34:24.068Z,95117.28
2018-10-07T22:36:53.403Z,95130.73
2018-10-07T22:39:22.544Z,95132.44
2018-10-07T22:41:51.638Z,95133.05
2018-10-07T22:44:21.115Z,95131.06
2018-10-07T22:46:50.144Z,95133.84
2018-10-07T22:49:19.382Z,95137.65
2018-10-07T22:51:48.599Z,95141.77
2018-10-07T22:54:17.684Z,95138.89
2018-10-07T22:56:46.854Z,95135.38
2018-10-07T22:59:16.339Z,95138.13
2018-10-07T23:01:45.452Z,95131.74
2018-10-07T23:04:14.595Z,95135.09
2018-10-07T23:06:44.207Z,95132.51
2018-10-07T23:09:13.915Z,95130.97
2018-10-07T23:11:43.438Z,95126.25
2018-10-07T23:14:12.931Z,95132.21
2018-10-07T23:16:42.222Z,95129.31
2018-10-07T23:19:11.412Z,95124.58
2018-10-07T23:21:40.875Z,95132.05
2018-10-07T23:24:09.967Z,95122.89
2018-10-07T23:26:39.096Z,95124.74
2018-10-07T23:29:08.447Z,95123.66
2018-10-07T23:31:37.353Z,95123.05
2018-10-07T23:34:06.452Z,95126.56
2018-10-07T23:36:35.755Z,95118.19
2018-10-07T23:39:06.445Z,95117.58
2018-10-07T23:41:35.479Z,95114.36
2018-10-07T23:44:04.764Z,95126.57
2018-10-07T23:46:33.883Z,95118.62
2018-10-07T23:49:03.139Z,95120.14
2018-10-07T23:51:32.531Z,95119.51
2018-10-07T23:54:02.130Z,95119.23
2018-10-07T23:56:31.223Z,95115.59
2018-10-07T23:59:00.751Z,95107.97
